Time;durP1;ratioP1;P1;durP2;ratioP2;P2;SDS_P1;SDS_P2;PMS_P1;PMS_P2;Temp;Humidity;BMP_temperature;BMP_pressure;BME280_temperature;BME280_humidity;BME280_pressure;Samples;Min_cycle;Max_cycle;Signal;HPM_P1;HPM_P2
2023/01/05 00:00:44;;;;;;;;;;;;;;;13.45;61.30;98112.13;4234254;28;8002;-70
2023/01/05 00:02:47;;;;;;;;;;;;;;;13.44;61.38;98111.31;4228567;28;5751;-71
2023/01/05 00:04:49;;;;;;;;;;;;;;;13.40;61.42;98105.53;4217647;28;5671;-69
2023/01/05 00:06:52;;;;;;;;;;;;;;;13.42;61.39;98109.84;4226104;28;5682;-70
2023/01/05 00:08:57;;;;;;;;;;;;;;;13.43;61.34;98109.66;4245636;27;5625;-70
2023/01/05 00:22:47;;;;;;;;;;;;;;;13.42;61.57;98093.91;4234287;28;5740;-70
2023/01/05 00:24:51;;;;;;;;;;;;;;;13.40;61.72;98097.56;4234329;28;5646;-71
2023/01/05 00:26:54;;;;;;;;;;;;;;;13.42;61.53;98096.56;4234377;28;5769;-71
2023/01/05 00:28:57;;;;;;;;;;;;;;;13.43;61.74;98098.22;4234519;28;6175;-71
2023/01/05 00:30:59;;;;;;;;;;;;;;;13.44;61.81;98098.03;4233947;28;5736;-70
2023/01/05 00:33:02;;;;;;;;;;;;;;;13.42;61.69;98091.25;4234108;28;5667;-70
2023/01/05 00:35:05;;;;;;;;;;;;;;;13.41;61.91;98085.09;4234223;28;5741;-71
2023/01/05 00:37:08;;;;;;;;;;;;;;;13.44;61.82;98087.41;4234299;28;5658;-71
2023/01/05 00:39:11;;;;;;;;;;;;;;;13.44;61.87;98086.56;4234661;28;5630;-70
2023/01/05 00:41:15;;;;;;;;;;;;;;;13.43;61.77;98083.09;4235263;28;5665;-70
2023/01/05 00:43:18;;;;;;;;;;;;;;;13.45;61.94;98085.56;4237646;28;5666;-70
2023/01/05 00:45:21;;;;;;;;;;;;;;;13.45;62.01;98086.38;4237040;28;5728;-70
2023/01/05 00:47:23;;;;;;;;;;;;;;;13.46;62.05;98077.41;4237319;28;5753;-70
2023/01/05 00:49:26;;;;;;;;;;;;;;;13.48;62.11;98072.78;4237052;28;5737;-70
2023/01/05 00:51:29;;;;;;;;;;;;;;;13.48;61.68;98078.09;4233689;28;5794;-70
2023/01/05 00:53:32;;;;;;;;;;;;;;;13.48;62.02;98079.88;4228807;27;6314;-70
2023/01/05 00:55:34;;;;;;;;;;;;;;;13.48;62.10;98077.22;4254110;27;5680;-70
2023/01/05 00:57:38;;;;;;;;;;;;;;;13.47;62.19;98079.06;4250554;27;5634;-70
2023/01/05 00:59:41;;;;;;;;;;;;;;;13.49;61.90;98076.25;4236916;28;5646;-69
2023/01/05 01:01:46;;;;;;;;;;;;;;;13.49;61.86;98078.91;4237169;28;5665;-69
2023/01/05 01:03:49;;;;;;;;;;;;;;;13.48;62.18;98079.88;4237179;28;5645;-69
2023/01/05 01:05:57;;;;;;;;;;;;;;;13.48;62.24;98075.44;4236980;28;5639;-69
2023/01/05 01:07:59;;;;;;;;;;;;;;;13.49;61.86;98076.25;4229281;28;5725;-69
2023/01/05 01:10:02;;;;;;;;;;;;;;;13.49;62.13;98066.44;4242445;27;5775;-69
2023/01/05 01:12:06;;;;;;;;;;;;;;;13.49;62.22;98070.94;4243887;27;5650;-69
2023/01/05 01:14:12;;;;;;;;;;;;;;;13.47;62.01;98068.44;4237190;28;5893;-69
2023/01/05 01:16:16;;;;;;;;;;;;;;;13.45;62.09;98064.31;4236662;28;5654;-69
2023/01/05 01:18:19;;;;;;;;;;;;;;;13.43;62.13;98069.00;4236794;28;5658;-69
2023/01/05 01:20:22;;;;;;;;;;;;;;;13.42;62.38;98075.31;4236492;28;5774;-69
2023/01/05 01:22:24;;;;;;;;;;;;;;;13.40;62.20;98076.31;4236579;28;5768;-69
2023/01/05 01:24:28;;;;;;;;;;;;;;;13.41;62.55;98074.50;4236556;28;5669;-69
2023/01/05 01:26:30;;;;;;;;;;;;;;;13.43;62.21;98071.66;4237026;28;5671;-69
2023/01/05 01:28:34;;;;;;;;;;;;;;;13.46;62.37;98071.28;4236604;28;5654;-69
2023/01/05 01:30:39;;;;;;;;;;;;;;;13.48;62.56;98069.25;4236195;28;5790;-69
2023/01/05 01:32:42;;;;;;;;;;;;;;;13.49;62.26;98073.59;4236694;28;5650;-69
2023/01/05 01:34:45;;;;;;;;;;;;;;;13.49;62.33;98066.44;4231894;28;5088;-69
2023/01/05 01:36:48;;;;;;;;;;;;;;;13.49;62.38;98071.75;4229633;28;7701;-69
2023/01/05 01:38:51;;;;;;;;;;;;;;;13.52;62.53;98078.53;4236532;28;5766;-69
2023/01/05 01:40:53;;;;;;;;;;;;;;;13.51;62.29;98077.72;4236073;28;5732;-69
2023/01/05 01:42:56;;;;;;;;;;;;;;;13.50;62.46;98076.06;4236073;28;5793;-69
2023/01/05 01:45:01;;;;;;;;;;;;;;;13.51;62.60;98079.56;4236257;28;5647;-69
2023/01/05 01:47:05;;;;;;;;;;;;;;;13.50;62.71;98076.06;4236366;28;5788;-69
2023/01/05 01:49:10;;;;;;;;;;;;;;;13.51;62.44;98068.91;4236511;28;5654;-70
2023/01/05 01:51:17;;;;;;;;;;;;;;;13.53;62.66;98072.22;4236091;28;5729;-69
2023/01/05 01:53:24;;;;;;;;;;;;;;;13.55;62.55;98080.81;4235717;28;5626;-69
2023/01/05 01:55:28;;;;;;;;;;;;;;;13.52;62.59;98075.88;4236375;28;5810;-69
2023/01/05 01:57:33;;;;;;;;;;;;;;;13.48;62.74;98069.25;4235844;28;5646;-71
2023/01/05 01:59:36;;;;;;;;;;;;;;;13.45;62.63;98069.63;4236082;28;5768;-72
2023/01/05 02:01:39;;;;;;;;;;;;;;;13.37;63.07;98071.38;4235965;28;5653;-71
2023/01/05 02:03:44;;;;;;;;;;;;;;;13.31;63.01;98077.38;4235913;28;5642;-71
2023/01/05 02:05:47;;;;;;;;;;;;;;;13.28;63.40;98071.63;4236032;28;5658;-70
2023/01/05 02:07:50;;;;;;;;;;;;;;;13.28;63.30;98075.09;4236146;28;5657;-70
2023/01/05 02:09:53;;;;;;;;;;;;;;;13.30;63.19;98070.44;4235596;28;5662;-70
2023/01/05 02:12:03;;;;;;;;;;;;;;;13.30;63.20;98070.44;4235941;28;5661;-70
2023/01/05 02:14:26;;;;;;;;;;;;;;;13.29;63.37;98063.47;4229210;28;5702;-70
2023/01/05 02:16:36;;;;;;;;;;;;;;;13.32;63.32;98076.38;4236069;28;5924;-70
2023/01/05 02:18:53;;;;;;;;;;;;;;;13.30;63.20;98073.09;4235672;28;7396;-70
2023/01/05 02:21:07;;;;;;;;;;;;;;;13.29;63.33;98076.75;4231910;28;5646;-70
2023/01/05 02:23:49;;;;;;;;;;;;;;;13.28;63.28;98066.31;4221964;28;5642;-70
2023/01/05 02:26:20;;;;;;;;;;;;;;;13.30;63.16;98073.09;4235257;28;5659;-70
2023/01/05 02:28:38;;;;;;;;;;;;;;;13.31;63.13;98057.97;4235686;28;5805;-70
2023/01/05 02:30:59;;;;;;;;;;;;;;;13.29;62.82;98049.38;4235520;28;5662;-70
2023/01/05 02:33:15;;;;;;;;;;;;;;;13.24;63.32;98049.88;4235544;28;5650;-70
2023/01/05 02:35:27;;;;;;;;;;;;;;;13.25;63.35;98054.22;4235484;28;5638;-70
2023/01/05 02:37:36;;;;;;;;;;;;;;;13.27;63.07;98057.53;4235476;28;5799;-70
2023/01/05 02:39:45;;;;;;;;;;;;;;;13.29;63.27;98052.84;4235597;28;5634;-70
2023/01/05 02:41:54;;;;;;;;;;;;;;;13.29;62.89;98044.06;4233839;28;5804;-70
2023/01/05 02:43:58;;;;;;;;;;;;;;;13.27;63.29;98041.59;4235516;28;5650;-70
2023/01/05 02:46:02;;;;;;;;;;;;;;;13.27;63.02;98046.91;4235088;28;5642;-70
2023/01/05 02:48:05;;;;;;;;;;;;;;;13.28;63.07;98037.91;4235449;28;5650;-70
2023/01/05 02:50:14;;;;;;;;;;;;;;;13.28;63.18;98037.09;4234937;28;5713;-70
2023/01/05 02:52:18;;;;;;;;;;;;;;;13.28;63.09;98045.88;4234587;28;6417;-70
2023/01/05 02:54:26;;;;;;;;;;;;;;;13.28;63.26;98032.59;4235135;28;5679;-70
2023/01/05 02:56:34;;;;;;;;;;;;;;;13.30;63.28;98030.59;4235221;28;5717;-70
2023/01/05 02:58:41;;;;;;;;;;;;;;;13.30;63.16;98030.59;4234261;28;5910;-70
2023/01/05 03:00:50;;;;;;;;;;;;;;;13.30;63.17;98025.28;4224427;28;5829;-70
2023/01/05 03:02:58;;;;;;;;;;;;;;;13.30;63.23;98032.44;4218536;28;5861;-70
2023/01/05 03:05:06;;;;;;;;;;;;;;;13.28;63.31;98021.97;4232697;28;7245;-71
2023/01/05 03:07:13;;;;;;;;;;;;;;;13.30;63.03;98030.59;4235149;28;5705;-70
2023/01/05 03:09:19;;;;;;;;;;;;;;;13.32;63.13;98027.75;4235304;28;5729;-70
2023/01/05 03:13:45;;;;;;;;;;;;;;;13.29;62.98;98025.47;4234888;28;5728;-70
2023/01/05 03:15:51;;;;;;;;;;;;;;;13.28;63.00;98027.28;4234766;28;5701;-70
2023/01/05 03:17:58;;;;;;;;;;;;;;;13.29;63.01;98018.31;4234912;28;5650;-70
2023/01/05 03:20:02;;;;;;;;;;;;;;;13.28;63.13;98014.00;4227058;28;5776;-70
2023/01/05 03:36:29;;;;;;;;;;;;;;;13.12;62.99;98006.16;4234366;28;5622;-70
2023/01/05 03:38:36;;;;;;;;;;;;;;;13.11;63.02;98007.97;4248240;27;5692;-70
2023/01/05 03:40:40;;;;;;;;;;;;;;;13.10;63.25;98006.34;4237148;27;5697;-70
2023/01/05 03:42:43;;;;;;;;;;;;;;;13.13;63.14;98005.16;4234456;28;5830;-70
2023/01/05 03:44:48;;;;;;;;;;;;;;;13.17;62.92;98003.81;4234162;28;7791;-70
2023/01/05 03:46:51;;;;;;;;;;;;;;;13.17;62.70;98003.81;4234468;28;5658;-70
2023/01/05 03:48:54;;;;;;;;;;;;;;;13.14;62.79;98001.50;4234424;28;5646;-70
2023/01/05 03:50:58;;;;;;;;;;;;;;;13.11;62.78;97991.22;4234465;28;5678;-70
2023/01/05 03:53:01;;;;;;;;;;;;;;;13.11;63.13;97999.19;4234227;28;5728;-70
2023/01/05 03:55:05;;;;;;;;;;;;;;;13.11;63.05;97997.38;4234383;28;5661;-70
2023/01/05 03:57:07;;;;;;;;;;;;;;;13.12;62.92;97987.56;4234654;28;5145;-70
2023/01/05 03:59:10;;;;;;;;;;;;;;;13.15;62.97;97989.06;4233390;28;6395;-70
2023/01/05 04:01:13;;;;;;;;;;;;;;;13.16;63.03;97996.84;4232075;28;5650;-70
2023/01/05 04:03:16;;;;;;;;;;;;;;;13.16;62.76;97986.22;4224594;28;5778;-70
2023/01/05 04:05:19;;;;;;;;;;;;;;;13.06;63.04;97981.16;4217216;28;5682;-70
2023/01/05 04:07:23;;;;;;;;;;;;;;;13.04;63.12;97990.31;4217343;28;5755;-70
2023/01/05 04:09:25;;;;;;;;;;;;;;;13.05;63.23;97989.31;4229322;28;5649;-70
2023/01/05 04:11:28;;;;;;;;;;;;;;;13.08;63.19;97988.94;4231935;28;5650;-70
2023/01/05 04:13:31;;;;;;;;;;;;;;;13.10;62.83;97986.94;4233262;28;5646;-70
2023/01/05 04:15:33;;;;;;;;;;;;;;;13.12;62.82;97988.38;4223251;28;5713;-70
2023/01/05 04:17:36;;;;;;;;;;;;;;;13.14;62.66;97982.94;4234114;28;5687;-70
2023/01/05 04:19:39;;;;;;;;;;;;;;;13.10;62.82;97984.28;4234174;28;5107;-70
2023/01/05 04:21:42;;;;;;;;;;;;;;;13.07;62.93;97990.78;4221077;28;7694;-70
2023/01/05 04:23:46;;;;;;;;;;;;;;;13.06;63.17;97981.16;4223762;28;5796;-70
2023/01/05 04:25:48;;;;;;;;;;;;;;;13.09;62.82;97979.97;4227961;28;5653;-70
2023/01/05 04:27:51;;;;;;;;;;;;;;;13.09;62.93;97980.78;4228877;28;5703;-70
2023/01/05 04:29:54;;;;;;;;;;;;;;;13.09;62.84;97979.97;4238368;27;5719;-70
2023/01/05 04:31:57;;;;;;;;;;;;;;;13.08;62.94;97983.63;4241461;27;5088;-70
2023/01/05 04:33:59;;;;;;;;;;;;;;;13.08;62.86;97978.31;4237354;28;5713;-70
2023/01/05 04:36:02;;;;;;;;;;;;;;;13.10;62.99;97976.31;4237774;28;5670;-70
2023/01/05 04:38:05;;;;;;;;;;;;;;;13.11;62.71;97977.94;4237831;28;5743;-70
2023/01/05 04:40:10;;;;;;;;;;;;;;;13.08;62.82;97978.31;4221417;28;5679;-70
2023/01/05 04:42:13;;;;;;;;;;;;;;;13.06;62.99;97980.34;4221175;28;5672;-70
2023/01/05 04:44:16;;;;;;;;;;;;;;;13.07;63.06;97976.69;4235354;28;5670;-70
2023/01/05 04:46:19;;;;;;;;;;;;;;;13.11;62.78;97980.59;4225969;28;5667;-70
2023/01/05 04:48:22;;;;;;;;;;;;;;;13.11;62.85;97975.28;4225209;28;5654;-70
2023/01/05 04:50:25;;;;;;;;;;;;;;;13.08;62.83;97978.31;4220182;28;5667;-70
2023/01/05 04:52:28;;;;;;;;;;;;;;;13.09;63.03;97979.97;4236040;28;5741;-70
2023/01/05 04:54:31;;;;;;;;;;;;;;;13.11;62.96;97978.78;4227361;28;5830;-70
2023/01/05 04:56:35;;;;;;;;;;;;;;;13.10;63.21;97987.75;4234838;28;5630;-70
2023/01/05 04:58:38;;;;;;;;;;;;;;;13.11;62.91;97980.59;4237301;28;5654;-70
2023/01/05 05:00:40;;;;;;;;;;;;;;;13.15;62.99;97978.44;4231780;28;5782;-70
2023/01/05 05:02:43;;;;;;;;;;;;;;;13.15;63.11;97984.56;4220310;28;5663;-70
2023/01/05 05:04:46;;;;;;;;;;;;;;;13.15;63.16;97981.91;4227202;28;5666;-70
2023/01/05 05:06:49;;;;;;;;;;;;;;;13.17;62.88;97979.91;4234041;28;6461;-70
2023/01/05 05:08:52;;;;;;;;;;;;;;;13.14;63.26;97982.94;4222046;28;5766;-70
2023/01/05 05:10:54;;;;;;;;;;;;;;;13.13;63.11;97981.25;4220819;28;5780;-70
2023/01/05 05:12:58;;;;;;;;;;;;;;;13.13;63.00;97982.06;4228610;28;5827;-70
2023/01/05 05:15:01;;;;;;;;;;;;;;;13.13;62.99;97983.91;4236880;28;5654;-69
2023/01/05 05:17:04;;;;;;;;;;;;;;;13.13;63.21;97986.56;4236963;28;6404;-70
2023/01/05 05:19:08;;;;;;;;;;;;;;;13.13;63.30;97981.25;4250344;27;5613;-70
2023/01/05 05:21:12;;;;;;;;;;;;;;;13.13;63.32;97981.25;4236830;28;5665;-70
2023/01/05 05:23:14;;;;;;;;;;;;;;;13.11;63.26;97988.56;4236959;28;5638;-70
2023/01/05 05:25:17;;;;;;;;;;;;;;;13.16;63.12;97975.59;4236697;28;5909;-70
2023/01/05 05:27:20;;;;;;;;;;;;;;;13.19;63.20;97980.56;4235766;28;5721;-70
2023/01/05 05:29:24;;;;;;;;;;;;;;;13.19;63.35;97983.22;4236970;28;5060;-70
2023/01/05 05:31:27;;;;;;;;;;;;;;;13.21;62.97;97989.19;4240663;27;5636;-70
2023/01/05 05:33:30;;;;;;;;;;;;;;;13.20;63.07;97979.56;4239827;27;5713;-70
2023/01/05 05:35:33;;;;;;;;;;;;;;;13.25;63.36;97976.34;4236039;28;5675;-70
2023/01/05 05:37:35;;;;;;;;;;;;;;;13.26;63.07;97986.81;4236285;28;5661;-70
2023/01/05 05:39:38;;;;;;;;;;;;;;;13.26;63.37;97986.81;4236282;28;5818;-70
2023/01/05 05:41:41;;;;;;;;;;;;;;;13.24;63.49;97991.47;4236081;28;5757;-70
2023/01/05 05:43:43;;;;;;;;;;;;;;;13.25;63.39;97990.50;4235303;28;6347;-70
2023/01/05 05:45:47;;;;;;;;;;;;;;;13.27;63.39;97982.34;4236015;28;5728;-70
2023/01/05 05:47:52;;;;;;;;;;;;;;;13.22;63.26;97980.19;4236501;28;5662;-70
2023/01/05 05:49:55;;;;;;;;;;;;;;;13.19;63.51;97991.19;4235863;28;6450;-70
2023/01/05 05:51:58;;;;;;;;;;;;;;;13.19;63.33;97988.53;4236057;28;6344;-70
2023/01/05 05:54:00;;;;;;;;;;;;;;;13.20;63.55;97990.19;4236053;28;5736;-70
2023/01/05 05:56:03;;;;;;;;;;;;;;;13.20;63.49;97987.53;4235896;28;5654;-70
2023/01/05 05:58:07;;;;;;;;;;;;;;;13.21;63.53;97994.50;4236062;28;6028;-70
2023/01/05 06:00:11;;;;;;;;;;;;;;;13.23;63.56;97995.13;4235854;28;5685;-69
2023/01/05 06:02:16;;;;;;;;;;;;;;;13.25;63.56;97998.44;4236027;28;5650;-70
2023/01/05 06:04:19;;;;;;;;;;;;;;;13.27;63.44;97999.09;4236066;28;5665;-70
2023/01/05 06:06:22;;;;;;;;;;;;;;;13.29;63.35;97996.25;4235624;28;5653;-70
2023/01/05 06:08:26;;;;;;;;;;;;;;;13.29;63.32;97991.75;4222678;28;5663;-70
2023/01/05 06:10:28;;;;;;;;;;;;;;;13.31;63.48;97992.41;4223930;28;6369;-70
2023/01/05 06:12:31;;;;;;;;;;;;;;;13.32;63.38;97987.91;4228688;28;5782;-71
2023/01/05 06:14:34;;;;;;;;;;;;;;;13.26;63.31;97981.50;4229507;28;5646;-70
2023/01/05 06:16:37;;;;;;;;;;;;;;;13.20;63.72;97986.72;4234357;28;5650;-70
2023/01/05 06:18:41;;;;;;;;;;;;;;;13.18;63.97;97984.19;4235669;28;5741;-70
2023/01/05 06:20:44;;;;;;;;;;;;;;;13.21;63.89;97988.34;4227208;28;5746;-70
2023/01/05 06:22:47;;;;;;;;;;;;;;;13.22;63.67;97996.13;4225226;28;5724;-70
2023/01/05 06:24:50;;;;;;;;;;;;;;;13.24;63.63;97994.13;4232720;28;5729;-70
2023/01/05 06:26:52;;;;;;;;;;;;;;;13.25;63.77;97993.13;4233973;28;5706;-69
2023/01/05 06:28:55;;;;;;;;;;;;;;;13.22;63.62;97996.13;4227924;28;5746;-69
2023/01/05 06:30:58;;;;;;;;;;;;;;;13.20;63.53;98002.63;4227062;28;5638;-69
2023/01/05 06:33:01;;;;;;;;;;;;;;;13.13;63.63;98007.81;4235159;28;5745;-69
2023/01/05 06:35:06;;;;;;;;;;;;;;;13.05;64.11;98005.22;4235292;28;5646;-69
2023/01/05 06:37:08;;;;;;;;;;;;;;;12.99;64.23;97997.97;4235121;28;5686;-69
2023/01/05 06:39:11;;;;;;;;;;;;;;;13.00;64.03;98002.28;4235472;28;5728;-69
2023/01/05 06:41:14;;;;;;;;;;;;;;;12.93;64.05;98002.19;4235127;28;5634;-70
2023/01/05 06:43:17;;;;;;;;;;;;;;;12.89;64.15;97998.22;4235460;28;5232;-69
2023/01/05 06:45:19;;;;;;;;;;;;;;;12.89;64.20;97997.38;4234886;27;5669;-69
2023/01/05 06:47:22;;;;;;;;;;;;;;;12.93;64.48;98001.38;4234902;28;5650;-70
2023/01/05 06:49:25;;;;;;;;;;;;;;;12.94;64.37;97992.38;4234921;28;5638;-70
2023/01/05 06:51:29;;;;;;;;;;;;;;;12.99;64.41;98004.09;4234954;28;5649;-69
2023/01/05 06:53:32;;;;;;;;;;;;;;;13.03;64.18;97988.66;4235348;28;5653;-70
2023/01/05 06:55:35;;;;;;;;;;;;;;;13.05;64.01;97994.63;4235125;28;5635;-70
2023/01/05 06:57:38;;;;;;;;;;;;;;;13.07;64.02;97993.44;4234797;28;5822;-70
2023/01/05 06:59:40;;;;;;;;;;;;;;;13.10;63.87;97997.53;4234782;28;5693;-70
2023/01/05 07:01:43;;;;;;;;;;;;;;;13.11;63.99;97986.75;4228219;28;5776;-70
2023/01/05 07:03:46;;;;;;;;;;;;;;;13.12;63.80;97983.06;4233411;28;6422;-70
2023/01/05 07:05:49;;;;;;;;;;;;;;;13.12;63.83;97984.91;4232666;28;5731;-70
2023/01/05 07:07:53;;;;;;;;;;;;;;;13.11;64.09;97985.91;4225191;28;5679;-69
2023/01/05 07:09:55;;;;;;;;;;;;;;;13.12;63.94;97984.91;4218083;28;5671;-69
2023/01/05 07:11:58;;;;;;;;;;;;;;;13.14;63.86;97974.97;4224671;28;5745;-69
2023/01/05 07:14:01;;;;;;;;;;;;;;;13.13;64.20;97981.25;4223407;28;5657;-68
2023/01/05 07:16:04;;;;;;;;;;;;;;;13.15;63.84;97987.22;4227262;28;5147;-68
2023/01/05 07:18:07;;;;;;;;;;;;;;;13.14;64.13;97985.59;4217661;28;5166;-69
2023/01/05 07:20:10;;;;;;;;;;;;;;;13.12;64.13;97990.22;4218601;28;5663;-68
2023/01/05 07:22:14;;;;;;;;;;;;;;;13.10;64.20;97986.94;4217630;28;5655;-68
2023/01/05 07:24:18;;;;;;;;;;;;;;;13.09;64.03;97985.28;4225698;28;5650;-69
2023/01/05 07:26:20;;;;;;;;;;;;;;;13.09;64.08;97986.09;4225533;28;5734;-69
2023/01/05 07:28:23;;;;;;;;;;;;;;;13.14;63.97;97990.88;4221972;28;5737;-70
2023/01/05 07:30:26;;;;;;;;;;;;;;;13.19;64.07;97996.50;4219662;28;5976;-69
2023/01/05 07:32:29;;;;;;;;;;;;;;;13.19;63.79;97985.88;4218520;28;5790;-69
2023/01/05 07:34:31;;;;;;;;;;;;;;;13.15;64.04;97989.06;4218603;28;5763;-69
2023/01/05 07:36:34;;;;;;;;;;;;;;;13.04;64.10;97985.00;4218026;28;5730;-69
2023/01/05 07:38:37;;;;;;;;;;;;;;;12.97;64.28;97979.56;4217761;28;5763;-70
2023/01/05 07:40:41;;;;;;;;;;;;;;;12.97;64.35;97987.53;4221274;28;5100;-70
2023/01/05 07:42:44;;;;;;;;;;;;;;;12.99;64.21;97997.97;4232672;28;5714;-69
2023/01/05 07:44:47;;;;;;;;;;;;;;;13.01;64.31;97993.31;4219770;28;5638;-69
2023/01/05 07:46:49;;;;;;;;;;;;;;;13.02;64.38;97989.66;4234350;28;5682;-70
2023/01/05 07:48:52;;;;;;;;;;;;;;;13.05;64.11;97981.34;4224905;28;6365;-70
2023/01/05 07:51:01;;;;;;;;;;;;;;;13.09;64.21;97985.28;4227161;28;5638;-69
2023/01/05 07:53:03;;;;;;;;;;;;;;;13.10;64.29;97990.41;4233408;28;5682;-69
2023/01/05 07:55:07;;;;;;;;;;;;;;;13.11;64.04;97989.41;4222336;28;5663;-69
2023/01/05 07:57:11;;;;;;;;;;;;;;;13.13;64.13;97981.25;4219734;28;6780;-70
2023/01/05 07:59:14;;;;;;;;;;;;;;;13.15;63.88;97983.75;4232407;28;5718;-70
2023/01/05 08:01:17;;;;;;;;;;;;;;;13.17;63.92;97982.56;4225111;28;5815;-70
2023/01/05 08:03:20;;;;;;;;;;;;;;;13.19;64.02;97980.56;4231816;28;5654;-70
2023/01/05 08:05:23;;;;;;;;;;;;;;;13.20;63.93;97986.72;4234420;28;6347;-69
2023/01/05 08:07:26;;;;;;;;;;;;;;;13.22;64.19;97984.69;4234338;28;5745;-69
2023/01/05 08:11:49;;;;;;;;;;;;;;;13.21;64.21;97981.22;4234319;28;5741;-70
2023/01/05 08:14:01;;;;;;;;;;;;;;;13.17;64.26;97989.69;4234452;28;5642;-69
2023/01/05 08:16:05;;;;;;;;;;;;;;;13.18;64.07;97991.34;4234021;28;5831;-69
2023/01/05 08:18:08;;;;;;;;;;;;;;;13.16;64.19;97988.06;4234340;28;5642;-70
2023/01/05 08:20:11;;;;;;;;;;;;;;;13.15;64.07;97989.88;4238223;27;5617;-69
2023/01/05 08:22:14;;;;;;;;;;;;;;;13.17;64.38;97992.34;4250508;27;5621;-70
2023/01/05 08:24:17;;;;;;;;;;;;;;;13.16;64.25;97991.53;4239878;27;5654;-69
2023/01/05 08:26:22;;;;;;;;;;;;;;;13.14;64.28;97996.19;4234203;28;5646;-70
2023/01/05 08:28:25;;;;;;;;;;;;;;;13.14;64.37;97990.88;4234008;28;5717;-69
2023/01/05 08:30:38;;;;;;;;;;;;;;;13.15;63.90;97995.19;4234362;28;5651;-70
2023/01/05 08:32:41;;;;;;;;;;;;;;;13.16;64.02;97991.53;4234388;28;5638;-70
2023/01/05 08:34:43;;;;;;;;;;;;;;;13.14;64.04;97982.94;4234361;28;5642;-70
2023/01/05 08:36:50;;;;;;;;;;;;;;;13.12;64.14;97988.38;4234274;28;5654;-70
2023/01/05 08:38:54;;;;;;;;;;;;;;;13.13;64.09;97994.53;4234114;28;5759;-69
2023/01/05 08:40:59;;;;;;;;;;;;;;;13.13;64.16;97999.84;4225498;28;5653;-70
2023/01/05 08:43:01;;;;;;;;;;;;;;;13.14;64.08;97998.84;4234089;28;5706;-69
2023/01/05 08:45:05;;;;;;;;;;;;;;;13.16;64.00;97996.84;4233036;28;5658;-69
2023/01/05 08:47:09;;;;;;;;;;;;;;;13.16;64.13;98003.97;4232995;28;5678;-70
2023/01/05 08:49:12;;;;;;;;;;;;;;;13.14;64.09;98001.50;4233790;28;5638;-69
2023/01/05 08:51:15;;;;;;;;;;;;;;;13.12;64.40;97995.53;4233697;28;5741;-69
2023/01/05 08:53:17;;;;;;;;;;;;;;;13.14;64.15;98001.50;4234011;28;5728;-70
2023/01/05 08:55:20;;;;;;;;;;;;;;;13.15;64.25;97994.38;4233885;28;5744;-69
2023/01/05 08:57:23;;;;;;;;;;;;;;;13.16;64.12;98007.47;4233865;28;5655;-70
2023/01/05 08:59:25;;;;;;;;;;;;;;;13.16;64.05;98012.78;4233897;28;5702;-70
2023/01/05 09:01:29;;;;;;;;;;;;;;;13.18;64.23;98017.91;4233876;28;5725;-70
2023/01/05 09:03:34;;;;;;;;;;;;;;;13.16;64.01;98007.47;4236902;28;5670;-70
2023/01/05 09:05:36;;;;;;;;;;;;;;;13.19;64.10;98006.31;4237146;28;5654;-69
2023/01/05 09:07:39;;;;;;;;;;;;;;;13.23;64.33;98013.72;4236957;28;5654;-69
2023/01/05 09:09:42;;;;;;;;;;;;;;;13.24;64.16;98010.06;4236648;28;5732;-70
2023/01/05 09:11:44;;;;;;;;;;;;;;;13.22;64.13;98008.59;4236921;28;5771;-70
2023/01/05 09:13:48;;;;;;;;;;;;;;;13.26;64.22;98012.56;4236762;28;5642;-69
2023/01/05 09:15:51;;;;;;;;;;;;;;;13.30;64.18;98009.34;4236588;28;5646;-70
2023/01/05 09:17:54;;;;;;;;;;;;;;;13.32;63.91;98012.63;4236708;28;5646;-70
2023/01/05 09:19:58;;;;;;;;;;;;;;;13.34;63.99;98013.28;4228261;28;5665;-70
2023/01/05 09:22:01;;;;;;;;;;;;;;;13.34;64.19;98021.25;4237234;28;5666;-70
2023/01/05 09:24:03;;;;;;;;;;;;;;;13.35;64.18;98016.75;4236812;28;5658;-70
2023/01/05 09:26:07;;;;;;;;;;;;;;;13.33;64.09;98018.78;4236873;28;5657;-70
2023/01/05 09:28:10;;;;;;;;;;;;;;;13.31;63.98;98031.41;4236536;28;5635;-69
2023/01/05 09:30:14;;;;;;;;;;;;;;;13.29;64.28;98025.47;4236474;28;5729;-69
2023/01/05 09:32:17;;;;;;;;;;;;;;;13.29;64.25;98028.94;4236667;28;5662;-69
2023/01/05 09:34:21;;;;;;;;;;;;;;;13.30;64.12;98027.94;4236472;28;5879;-70
2023/01/05 09:36:25;;;;;;;;;;;;;;;13.29;64.36;98034.25;4236228;28;5658;-70
2023/01/05 09:38:28;;;;;;;;;;;;;;;13.29;64.13;98034.25;4245355;27;5887;-70
2023/01/05 09:40:37;;;;;;;;;;;;;;;13.30;64.16;98035.06;4236452;28;7185;-70
2023/01/05 09:42:45;;;;;;;;;;;;;;;13.28;64.41;98043.22;4236306;28;5653;-70
2023/01/05 09:44:50;;;;;;;;;;;;;;;13.27;64.38;98041.59;4236712;28;5759;-69
2023/01/05 09:47:05;;;;;;;;;;;;;;;13.27;64.47;98041.59;4236500;28;6364;-70
2023/01/05 09:49:14;;;;;;;;;;;;;;;13.29;64.14;98039.56;4236472;28;5772;-70
2023/01/05 09:51:16;;;;;;;;;;;;;;;13.30;64.34;98046.53;4235931;28;5678;-69
2023/01/05 09:53:28;;;;;;;;;;;;;;;13.31;64.36;98050.81;4236405;28;5649;-69
2023/01/05 09:55:33;;;;;;;;;;;;;;;13.32;64.47;98039.19;4236328;28;5642;-69
2023/01/05 09:57:36;;;;;;;;;;;;;;;13.35;64.19;98041.47;4248462;27;5641;-70
2023/01/05 09:59:43;;;;;;;;;;;;;;;13.38;63.97;98043.81;4238386;27;5641;-70
2023/01/05 10:01:48;;;;;;;;;;;;;;;13.40;64.07;98038.31;4235523;28;5882;-70
2023/01/05 10:03:56;;;;;;;;;;;;;;;13.43;64.25;98037.13;4235763;28;5733;-70
2023/01/05 10:06:13;;;;;;;;;;;;;;;13.44;64.09;98036.94;4235988;28;5869;-70
2023/01/05 10:08:21;;;;;;;;;;;;;;;13.45;64.38;98043.06;4236019;28;6017;-70
2023/01/05 10:10:41;;;;;;;;;;;;;;;13.45;64.13;98037.75;4236028;28;5865;-70
2023/01/05 10:13:02;;;;;;;;;;;;;;;13.49;64.44;98039.06;4235360;28;5658;-70
2023/01/05 10:15:08;;;;;;;;;;;;;;;13.52;64.39;98041.34;4235927;28;5838;-69
2023/01/05 10:17:14;;;;;;;;;;;;;;;13.53;64.34;98029.72;4235674;28;5662;-70
2023/01/05 10:19:39;;;;;;;;;;;;;;;13.57;64.14;98031.00;4232868;28;5732;-70
2023/01/05 10:21:52;;;;;;;;;;;;;;;13.60;64.22;98035.97;4244316;27;5843;-70
2023/01/05 10:24:15;;;;;;;;;;;;;;;13.61;64.33;98034.94;4236050;27;5645;-70
2023/01/05 10:26:24;;;;;;;;;;;;;;;13.63;64.19;98027.63;4229200;28;5757;-73
2023/01/05 10:28:36;;;;;;;;;;;;;;;13.65;64.38;98029.06;4226334;28;5670;-70
2023/01/05 10:30:52;;;;;;;;;;;;;;;13.66;64.27;98024.59;4233471;28;5641;-68
2023/01/05 10:32:59;;;;;;;;;;;;;;;13.66;64.53;98019.28;4234354;28;5671;-70
2023/01/05 10:35:47;;;;;;;;;;;;;;;13.65;64.40;98012.31;4234527;28;5744;-71
2023/01/05 10:38:10;;;;;;;;;;;;;;;13.66;64.56;98016.63;4232657;28;5955;-69
2023/01/05 10:40:23;;;;;;;;;;;;;;;13.65;64.27;98014.97;4233995;28;5634;-69
2023/01/05 10:42:42;;;;;;;;;;;;;;;13.65;64.53;98001.69;4234160;28;5736;-71
2023/01/05 10:44:55;;;;;;;;;;;;;;;13.67;64.42;98010.28;4233887;28;5760;-70
2023/01/05 10:46:58;;;;;;;;;;;;;;;13.66;64.29;98001.50;4234572;28;5805;-76
2023/01/05 10:49:01;;;;;;;;;;;;;;;13.66;64.52;98006.81;4234474;28;5852;-73
2023/01/05 10:51:06;;;;;;;;;;;;;;;13.68;64.46;98006.63;4234006;28;5678;-71
2023/01/05 10:53:11;;;;;;;;;;;;;;;13.68;64.36;98001.31;4233929;28;5638;-71
2023/01/05 10:55:17;;;;;;;;;;;;;;;13.66;64.26;98006.81;4234174;28;5639;-72
2023/01/05 10:57:40;;;;;;;;;;;;;;;13.67;64.35;98000.50;4225204;28;5749;-72
2023/01/05 10:59:55;;;;;;;;;;;;;;;13.69;64.57;97997.63;4231868;28;5633;-72
2023/01/05 11:01:58;;;;;;;;;;;;;;;13.70;64.51;97999.28;4234346;28;5658;-72
2023/01/05 11:04:07;;;;;;;;;;;;;;;13.69;64.59;97998.47;4232472;28;5645;-72
2023/01/05 11:06:34;;;;;;;;;;;;;;;13.68;64.59;97990.69;4234039;28;5661;-72
2023/01/05 11:08:37;;;;;;;;;;;;;;;13.70;64.38;97988.66;4234403;28;5868;-78
2023/01/05 11:10:48;;;;;;;;;;;;;;;13.69;64.30;97987.00;4235005;28;6279;-66
2023/01/05 11:12:58;;;;;;;;;;;;;;;13.61;64.61;97979.16;4234549;28;5734;-73
2023/01/05 11:15:01;;;;;;;;;;;;;;;13.62;64.51;97978.97;4227219;28;5713;-71
2023/01/05 11:17:07;;;;;;;;;;;;;;;13.68;64.68;97980.06;4232997;27;5713;-73
2023/01/05 11:19:16;;;;;;;;;;;;;;;13.71;64.47;97977.03;4226605;28;6371;-72
2023/01/05 11:21:20;;;;;;;;;;;;;;;13.74;64.66;97978.50;4233502;28;6456;-72
2023/01/05 11:23:35;;;;;;;;;;;;;;;13.77;64.63;97972.81;4233151;28;5720;-73
2023/01/05 11:25:38;;;;;;;;;;;;;;;13.79;64.58;97963.63;4233245;28;5638;-73
2023/01/05 11:27:41;;;;;;;;;;;;;;;13.82;64.57;97965.13;4233404;28;5745;-73
2023/01/05 11:29:45;;;;;;;;;;;;;;;13.83;64.36;97964.94;4233544;28;5060;-73
2023/01/05 11:31:52;;;;;;;;;;;;;;;13.85;64.35;97960.25;4233230;28;7707;-73